< < Back
Terminal Aerodrome Forecast


Current Version              Previous Versions:   1  2  3  4  5  6  7  8  9  

Terminal Aerodrome Forecast

368
FTUS44 KBMX 312300
TAFTCL
TAF
KTCL 312320Z 0100/0124 14003KT P6SM OVC150
     FM011500 15009KT P6SM -RA OVC040
     FM011800 19008KT 2SM RA BR OVC007=

Latest METAR

283
SAUS70 KWBC 020100 RRH
MTRTCL
METAR KTCL 020053Z AUTO 18008KT 10SM BKN011 OVC018 16/14 A2979 RMK AO2
CIG 008V014 SLP088 T01560139


USA.gov is the U.S. government's official web portal to all federal, state and local government web resources and services.